sensor_id;sensor_type;location;lat;lon;timestamp;temperature;humidity
84791;DHT22;75024;43.486;3.794;2024-01-06T00:00:28;10.50;58.20
84791;DHT22;75024;43.486;3.794;2024-01-06T00:02:53;10.50;58.20
84791;DHT22;75024;43.486;3.794;2024-01-06T00:05:19;10.60;58.00
84791;DHT22;75024;43.486;3.794;2024-01-06T00:07:45;10.50;58.00
84791;DHT22;75024;43.486;3.794;2024-01-06T00:10:10;10.60;57.90
84791;DHT22;75024;43.486;3.794;2024-01-06T00:12:36;10.50;57.90
84791;DHT22;75024;43.486;3.794;2024-01-06T00:15:02;10.60;58.00
84791;DHT22;75024;43.486;3.794;2024-01-06T00:17:28;10.50;58.10
84791;DHT22;75024;43.486;3.794;2024-01-06T00:19:54;10.50;58.30
84791;DHT22;75024;43.486;3.794;2024-01-06T00:22:20;10.50;58.60
84791;DHT22;75024;43.486;3.794;2024-01-06T00:24:46;10.40;58.80
84791;DHT22;75024;43.486;3.794;2024-01-06T00:27:12;10.40;58.90
84791;DHT22;75024;43.486;3.794;2024-01-06T00:29:39;10.40;59.00
84791;DHT22;75024;43.486;3.794;2024-01-06T00:32:05;10.30;59.10
84791;DHT22;75024;43.486;3.794;2024-01-06T00:34:31;10.30;59.10
84791;DHT22;75024;43.486;3.794;2024-01-06T00:36:56;10.30;58.70
84791;DHT22;75024;43.486;3.794;2024-01-06T00:39:22;10.50;57.80
84791;DHT22;75024;43.486;3.794;2024-01-06T00:41:47;10.50;57.60
84791;DHT22;75024;43.486;3.794;2024-01-06T00:44:13;10.50;57.50
84791;DHT22;75024;43.486;3.794;2024-01-06T00:46:39;10.50;57.50
84791;DHT22;75024;43.486;3.794;2024-01-06T00:49:05;10.50;57.90
84791;DHT22;75024;43.486;3.794;2024-01-06T00:51:30;10.40;58.10
84791;DHT22;75024;43.486;3.794;2024-01-06T00:53:56;10.40;58.40
84791;DHT22;75024;43.486;3.794;2024-01-06T00:56:22;10.40;58.30
84791;DHT22;75024;43.486;3.794;2024-01-06T00:58:48;10.40;58.20
84791;DHT22;75024;43.486;3.794;2024-01-06T01:01:14;10.40;57.80
84791;DHT22;75024;43.486;3.794;2024-01-06T01:03:39;10.30;57.90
84791;DHT22;75024;43.486;3.794;2024-01-06T01:06:05;10.30;57.70
84791;DHT22;75024;43.486;3.794;2024-01-06T01:08:30;10.30;57.50
84791;DHT22;75024;43.486;3.794;2024-01-06T01:10:57;10.30;57.60
84791;DHT22;75024;43.486;3.794;2024-01-06T01:13:23;10.30;57.40
84791;DHT22;75024;43.486;3.794;2024-01-06T01:15:49;10.40;57.10
84791;DHT22;75024;43.486;3.794;2024-01-06T01:18:14;10.40;57.30
84791;DHT22;75024;43.486;3.794;2024-01-06T01:20:40;10.30;57.50
84791;DHT22;75024;43.486;3.794;2024-01-06T01:23:09;10.40;57.30
84791;DHT22;75024;43.486;3.794;2024-01-06T01:25:34;10.30;57.60
84791;DHT22;75024;43.486;3.794;2024-01-06T01:28:00;10.30;57.70
84791;DHT22;75024;43.486;3.794;2024-01-06T01:30:26;10.20;57.90
84791;DHT22;75024;43.486;3.794;2024-01-06T01:32:52;10.20;57.50
84791;DHT22;75024;43.486;3.794;2024-01-06T01:35:18;10.20;57.50
84791;DHT22;75024;43.486;3.794;2024-01-06T01:37:44;10.20;57.80
84791;DHT22;75024;43.486;3.794;2024-01-06T01:40:10;10.10;58.00
84791;DHT22;75024;43.486;3.794;2024-01-06T01:42:35;10.10;58.20
84791;DHT22;75024;43.486;3.794;2024-01-06T01:45:01;10.10;58.20
84791;DHT22;75024;43.486;3.794;2024-01-06T01:47:27;10.10;58.40
84791;DHT22;75024;43.486;3.794;2024-01-06T01:49:54;10.10;58.40
84791;DHT22;75024;43.486;3.794;2024-01-06T01:52:20;10.10;58.20
84791;DHT22;75024;43.486;3.794;2024-01-06T01:54:46;10.10;58.30
84791;DHT22;75024;43.486;3.794;2024-01-06T01:57:14;10.10;58.20
84791;DHT22;75024;43.486;3.794;2024-01-06T01:59:41;10.00;58.20
84791;DHT22;75024;43.486;3.794;2024-01-06T02:02:08;10.00;58.00
84791;DHT22;75024;43.486;3.794;2024-01-06T02:04:34;10.00;58.10
84791;DHT22;75024;43.486;3.794;2024-01-06T02:07:00;10.00;57.90
84791;DHT22;75024;43.486;3.794;2024-01-06T02:09:26;9.90;58.10
84791;DHT22;75024;43.486;3.794;2024-01-06T02:11:58;9.80;58.40
84791;DHT22;75024;43.486;3.794;2024-01-06T02:14:23;9.70;58.60
84791;DHT22;75024;43.486;3.794;2024-01-06T02:16:49;9.70;58.70
84791;DHT22;75024;43.486;3.794;2024-01-06T02:19:16;9.60;58.80
84791;DHT22;75024;43.486;3.794;2024-01-06T02:21:49;9.60;58.90
84791;DHT22;75024;43.486;3.794;2024-01-06T02:24:15;9.50;59.10
84791;DHT22;75024;43.486;3.794;2024-01-06T02:26:41;9.40;59.10
84791;DHT22;75024;43.486;3.794;2024-01-06T02:29:06;9.40;59.10
84791;DHT22;75024;43.486;3.794;2024-01-06T02:31:32;9.40;59.30
84791;DHT22;75024;43.486;3.794;2024-01-06T02:33:57;9.30;59.60
84791;DHT22;75024;43.486;3.794;2024-01-06T02:36:23;9.30;59.60
84791;DHT22;75024;43.486;3.794;2024-01-06T02:38:49;9.20;60.10
84791;DHT22;75024;43.486;3.794;2024-01-06T02:41:14;9.10;60.40
84791;DHT22;75024;43.486;3.794;2024-01-06T02:43:40;9.00;60.40
84791;DHT22;75024;43.486;3.794;2024-01-06T02:46:07;9.00;60.70
84791;DHT22;75024;43.486;3.794;2024-01-06T02:48:32;8.90;60.80
84791;DHT22;75024;43.486;3.794;2024-01-06T02:50:58;8.90;60.60
84791;DHT22;75024;43.486;3.794;2024-01-06T02:53:24;8.90;60.70
84791;DHT22;75024;43.486;3.794;2024-01-06T02:55:49;8.90;60.50
84791;DHT22;75024;43.486;3.794;2024-01-06T02:58:15;8.80;60.80
84791;DHT22;75024;43.486;3.794;2024-01-06T03:00:40;8.80;60.70
84791;DHT22;75024;43.486;3.794;2024-01-06T03:03:06;8.70;60.90
84791;DHT22;75024;43.486;3.794;2024-01-06T03:05:32;8.70;60.90
84791;DHT22;75024;43.486;3.794;2024-01-06T03:07:57;8.70;61.20
84791;DHT22;75024;43.486;3.794;2024-01-06T03:10:23;8.70;61.10
84791;DHT22;75024;43.486;3.794;2024-01-06T03:12:49;8.70;61.20
84791;DHT22;75024;43.486;3.794;2024-01-06T03:15:14;8.60;61.50
84791;DHT22;75024;43.486;3.794;2024-01-06T03:17:40;8.60;61.70
84791;DHT22;75024;43.486;3.794;2024-01-06T03:20:06;8.50;61.90
84791;DHT22;75024;43.486;3.794;2024-01-06T03:22:32;8.50;61.70
84791;DHT22;75024;43.486;3.794;2024-01-06T03:24:58;8.50;61.50
84791;DHT22;75024;43.486;3.794;2024-01-06T03:27:24;8.40;61.50
84791;DHT22;75024;43.486;3.794;2024-01-06T03:29:49;8.40;61.30
84791;DHT22;75024;43.486;3.794;2024-01-06T03:32:15;8.30;61.20
84791;DHT22;75024;43.486;3.794;2024-01-06T03:34:41;8.30;61.00
84791;DHT22;75024;43.486;3.794;2024-01-06T03:37:07;8.20;60.90
84791;DHT22;75024;43.486;3.794;2024-01-06T03:39:32;8.20;60.60
84791;DHT22;75024;43.486;3.794;2024-01-06T03:41:59;8.20;60.70
84791;DHT22;75024;43.486;3.794;2024-01-06T03:44:24;8.10;60.80
84791;DHT22;75024;43.486;3.794;2024-01-06T03:46:58;8.00;60.90
84791;DHT22;75024;43.486;3.794;2024-01-06T03:49:25;8.00;61.00
84791;DHT22;75024;43.486;3.794;2024-01-06T03:51:50;7.90;61.20
84791;DHT22;75024;43.486;3.794;2024-01-06T03:54:16;7.90;61.20
84791;DHT22;75024;43.486;3.794;2024-01-06T03:56:42;7.80;61.10
84791;DHT22;75024;43.486;3.794;2024-01-06T03:59:08;7.90;60.90
84791;DHT22;75024;43.486;3.794;2024-01-06T04:01:33;7.80;60.80
84791;DHT22;75024;43.486;3.794;2024-01-06T04:04:02;7.80;60.80
84791;DHT22;75024;43.486;3.794;2024-01-06T04:06:29;7.90;60.50
84791;DHT22;75024;43.486;3.794;2024-01-06T04:08:55;7.90;60.20
84791;DHT22;75024;43.486;3.794;2024-01-06T04:11:21;7.90;60.20
84791;DHT22;75024;43.486;3.794;2024-01-06T04:13:46;8.00;60.10
84791;DHT22;75024;43.486;3.794;2024-01-06T04:16:12;8.00;60.10
84791;DHT22;75024;43.486;3.794;2024-01-06T04:18:38;8.00;59.90
84791;DHT22;75024;43.486;3.794;2024-01-06T04:21:04;7.90;60.00
84791;DHT22;75024;43.486;3.794;2024-01-06T04:23:34;7.90;60.20
84791;DHT22;75024;43.486;3.794;2024-01-06T04:26:00;7.80;60.30
84791;DHT22;75024;43.486;3.794;2024-01-06T04:28:26;7.70;60.30
84791;DHT22;75024;43.486;3.794;2024-01-06T04:30:53;7.70;60.10
84791;DHT22;75024;43.486;3.794;2024-01-06T04:33:18;7.80;59.80
84791;DHT22;75024;43.486;3.794;2024-01-06T04:35:44;7.80;59.80
84791;DHT22;75024;43.486;3.794;2024-01-06T04:38:10;7.80;59.40
84791;DHT22;75024;43.486;3.794;2024-01-06T04:40:35;7.80;59.50
84791;DHT22;75024;43.486;3.794;2024-01-06T04:43:01;7.80;59.10
84791;DHT22;75024;43.486;3.794;2024-01-06T04:45:27;7.80;59.10
84791;DHT22;75024;43.486;3.794;2024-01-06T04:47:52;7.80;58.60
84791;DHT22;75024;43.486;3.794;2024-01-06T04:50:18;7.90;58.50
84791;DHT22;75024;43.486;3.794;2024-01-06T04:52:44;7.80;58.50
84791;DHT22;75024;43.486;3.794;2024-01-06T04:55:09;7.80;58.50
84791;DHT22;75024;43.486;3.794;2024-01-06T04:57:36;7.70;58.70
84791;DHT22;75024;43.486;3.794;2024-01-06T05:00:03;7.70;58.30
84791;DHT22;75024;43.486;3.794;2024-01-06T05:02:29;7.80;58.00
84791;DHT22;75024;43.486;3.794;2024-01-06T05:04:55;7.80;57.50
84791;DHT22;75024;43.486;3.794;2024-01-06T05:07:20;7.70;57.60
84791;DHT22;75024;43.486;3.794;2024-01-06T05:09:46;7.80;57.40
84791;DHT22;75024;43.486;3.794;2024-01-06T05:12:12;7.80;57.50
84791;DHT22;75024;43.486;3.794;2024-01-06T05:14:37;7.80;57.40
84791;DHT22;75024;43.486;3.794;2024-01-06T05:17:03;7.70;57.60
84791;DHT22;75024;43.486;3.794;2024-01-06T05:19:29;7.60;57.90
84791;DHT22;75024;43.486;3.794;2024-01-06T05:21:55;7.60;57.90
84791;DHT22;75024;43.486;3.794;2024-01-06T05:24:21;7.60;57.90
84791;DHT22;75024;43.486;3.794;2024-01-06T05:26:46;7.60;57.60
84791;DHT22;75024;43.486;3.794;2024-01-06T05:29:12;7.60;57.60
84791;DHT22;75024;43.486;3.794;2024-01-06T05:31:37;7.50;57.90
84791;DHT22;75024;43.486;3.794;2024-01-06T05:34:03;7.50;58.20
84791;DHT22;75024;43.486;3.794;2024-01-06T05:36:30;7.50;58.00
84791;DHT22;75024;43.486;3.794;2024-01-06T05:38:55;7.50;57.90
84791;DHT22;75024;43.486;3.794;2024-01-06T05:41:21;7.40;58.30
84791;DHT22;75024;43.486;3.794;2024-01-06T05:43:46;7.30;58.30
84791;DHT22;75024;43.486;3.794;2024-01-06T05:46:20;7.40;58.40
84791;DHT22;75024;43.486;3.794;2024-01-06T05:48:46;7.30;58.30
84791;DHT22;75024;43.486;3.794;2024-01-06T05:51:11;7.40;58.10
84791;DHT22;75024;43.486;3.794;2024-01-06T05:53:37;7.40;57.90
84791;DHT22;75024;43.486;3.794;2024-01-06T05:56:03;7.30;58.00
84791;DHT22;75024;43.486;3.794;2024-01-06T05:58:28;7.30;57.80
84791;DHT22;75024;43.486;3.794;2024-01-06T06:00:54;7.40;57.50
84791;DHT22;75024;43.486;3.794;2024-01-06T06:03:20;7.40;57.30
84791;DHT22;75024;43.486;3.794;2024-01-06T06:05:45;7.30;57.30
84791;DHT22;75024;43.486;3.794;2024-01-06T06:08:11;7.40;56.50
84791;DHT22;75024;43.486;3.794;2024-01-06T06:10:37;7.40;56.20
84791;DHT22;75024;43.486;3.794;2024-01-06T06:13:09;7.30;56.20
84791;DHT22;75024;43.486;3.794;2024-01-06T06:15:36;7.30;55.80
84791;DHT22;75024;43.486;3.794;2024-01-06T06:18:02;7.40;55.10
84791;DHT22;75024;43.486;3.794;2024-01-06T06:20:27;7.40;54.70
84791;DHT22;75024;43.486;3.794;2024-01-06T06:22:53;7.50;54.20
84791;DHT22;75024;43.486;3.794;2024-01-06T06:25:18;7.60;53.80
84791;DHT22;75024;43.486;3.794;2024-01-06T06:27:44;7.60;53.70
84791;DHT22;75024;43.486;3.794;2024-01-06T06:30:10;7.50;53.80
84791;DHT22;75024;43.486;3.794;2024-01-06T06:32:36;7.40;53.90
84791;DHT22;75024;43.486;3.794;2024-01-06T06:35:01;7.50;53.60
84791;DHT22;75024;43.486;3.794;2024-01-06T06:37:28;7.50;53.30
84791;DHT22;75024;43.486;3.794;2024-01-06T06:39:53;7.40;53.30
84791;DHT22;75024;43.486;3.794;2024-01-06T06:42:19;7.50;53.20
84791;DHT22;75024;43.486;3.794;2024-01-06T06:44:45;7.40;53.30
84791;DHT22;75024;43.486;3.794;2024-01-06T06:47:10;7.20;53.70
84791;DHT22;75024;43.486;3.794;2024-01-06T06:49:36;7.30;53.40
84791;DHT22;75024;43.486;3.794;2024-01-06T06:52:01;7.30;53.30
84791;DHT22;75024;43.486;3.794;2024-01-06T06:54:29;7.40;52.70
84791;DHT22;75024;43.486;3.794;2024-01-06T06:56:54;7.50;52.60
84791;DHT22;75024;43.486;3.794;2024-01-06T06:59:20;7.50;52.30
84791;DHT22;75024;43.486;3.794;2024-01-06T07:01:45;7.50;52.40
84791;DHT22;75024;43.486;3.794;2024-01-06T07:04:11;7.60;52.10
84791;DHT22;75024;43.486;3.794;2024-01-06T07:06:37;7.60;52.20
84791;DHT22;75024;43.486;3.794;2024-01-06T07:09:03;7.60;52.10
84791;DHT22;75024;43.486;3.794;2024-01-06T07:11:30;7.70;51.80
84791;DHT22;75024;43.486;3.794;2024-01-06T07:13:56;7.60;51.90
84791;DHT22;75024;43.486;3.794;2024-01-06T07:16:21;7.60;52.00
84791;DHT22;75024;43.486;3.794;2024-01-06T07:18:47;7.50;52.10
84791;DHT22;75024;43.486;3.794;2024-01-06T07:21:13;7.50;52.00
84791;DHT22;75024;43.486;3.794;2024-01-06T07:23:39;7.60;52.00
84791;DHT22;75024;43.486;3.794;2024-01-06T07:26:05;7.50;51.90
84791;DHT22;75024;43.486;3.794;2024-01-06T07:28:30;7.50;52.00
84791;DHT22;75024;43.486;3.794;2024-01-06T07:30:56;7.50;51.80
84791;DHT22;75024;43.486;3.794;2024-01-06T07:33:22;7.40;52.00
84791;DHT22;75024;43.486;3.794;2024-01-06T07:35:47;7.30;52.30
84791;DHT22;75024;43.486;3.794;2024-01-06T07:38:13;7.30;52.30
84791;DHT22;75024;43.486;3.794;2024-01-06T07:40:39;7.30;52.30
84791;DHT22;75024;43.486;3.794;2024-01-06T07:43:05;7.30;52.30
84791;DHT22;75024;43.486;3.794;2024-01-06T07:45:33;7.30;51.90
84791;DHT22;75024;43.486;3.794;2024-01-06T07:47:59;7.50;51.50
84791;DHT22;75024;43.486;3.794;2024-01-06T07:50:25;7.40;51.80
84791;DHT22;75024;43.486;3.794;2024-01-06T07:52:51;7.30;52.00
84791;DHT22;75024;43.486;3.794;2024-01-06T07:55:17;7.30;52.10
84791;DHT22;75024;43.486;3.794;2024-01-06T07:57:44;7.30;52.40
84791;DHT22;75024;43.486;3.794;2024-01-06T08:00:10;7.30;52.30
84791;DHT22;75024;43.486;3.794;2024-01-06T08:02:35;7.40;52.00
84791;DHT22;75024;43.486;3.794;2024-01-06T08:05:01;7.30;52.20
84791;DHT22;75024;43.486;3.794;2024-01-06T08:07:28;7.30;52.20
84791;DHT22;75024;43.486;3.794;2024-01-06T08:09:53;7.40;52.20
84791;DHT22;75024;43.486;3.794;2024-01-06T08:12:19;7.40;52.20
84791;DHT22;75024;43.486;3.794;2024-01-06T08:14:44;7.40;52.20
84791;DHT22;75024;43.486;3.794;2024-01-06T08:17:10;7.40;52.50
84791;DHT22;75024;43.486;3.794;2024-01-06T08:19:36;7.50;52.30
84791;DHT22;75024;43.486;3.794;2024-01-06T08:22:01;7.50;52.10
84791;DHT22;75024;43.486;3.794;2024-01-06T08:24:27;7.60;52.10
84791;DHT22;75024;43.486;3.794;2024-01-06T08:26:53;7.70;51.90
84791;DHT22;75024;43.486;3.794;2024-01-06T08:29:18;7.70;51.80
84791;DHT22;75024;43.486;3.794;2024-01-06T08:31:45;7.80;51.90
84791;DHT22;75024;43.486;3.794;2024-01-06T08:34:11;7.80;51.80
84791;DHT22;75024;43.486;3.794;2024-01-06T08:36:36;7.80;51.90
84791;DHT22;75024;43.486;3.794;2024-01-06T08:39:02;8.00;51.30
84791;DHT22;75024;43.486;3.794;2024-01-06T08:41:28;8.10;51.30
84791;DHT22;75024;43.486;3.794;2024-01-06T08:43:54;8.20;50.50
84791;DHT22;75024;43.486;3.794;2024-01-06T08:46:19;8.40;49.90
84791;DHT22;75024;43.486;3.794;2024-01-06T08:48:45;8.50;49.60
84791;DHT22;75024;43.486;3.794;2024-01-06T08:51:11;8.60;49.50
84791;DHT22;75024;43.486;3.794;2024-01-06T08:53:36;8.60;49.50
84791;DHT22;75024;43.486;3.794;2024-01-06T08:56:03;8.70;49.20
84791;DHT22;75024;43.486;3.794;2024-01-06T08:58:28;8.80;48.60
84791;DHT22;75024;43.486;3.794;2024-01-06T09:00:54;8.90;48.50
84791;DHT22;75024;43.486;3.794;2024-01-06T09:03:20;8.90;48.20
84791;DHT22;75024;43.486;3.794;2024-01-06T09:05:56;9.00;48.20
84791;DHT22;75024;43.486;3.794;2024-01-06T09:08:22;9.00;47.90
84791;DHT22;75024;43.486;3.794;2024-01-06T09:10:49;9.10;47.80
84791;DHT22;75024;43.486;3.794;2024-01-06T09:13:17;9.20;47.70
84791;DHT22;75024;43.486;3.794;2024-01-06T09:15:43;9.20;47.70
84791;DHT22;75024;43.486;3.794;2024-01-06T09:18:09;9.30;47.40
84791;DHT22;75024;43.486;3.794;2024-01-06T09:20:35;9.40;46.80
84791;DHT22;75024;43.486;3.794;2024-01-06T09:23:00;9.40;46.90
84791;DHT22;75024;43.486;3.794;2024-01-06T09:25:26;9.50;46.40
84791;DHT22;75024;43.486;3.794;2024-01-06T09:27:52;9.50;46.30
84791;DHT22;75024;43.486;3.794;2024-01-06T09:30:18;9.60;46.30
84791;DHT22;75024;43.486;3.794;2024-01-06T09:32:44;9.60;46.70
84791;DHT22;75024;43.486;3.794;2024-01-06T09:35:10;9.70;46.50
84791;DHT22;75024;43.486;3.794;2024-01-06T09:37:35;9.70;46.30
84791;DHT22;75024;43.486;3.794;2024-01-06T09:40:01;9.80;46.20
84791;DHT22;75024;43.486;3.794;2024-01-06T09:42:27;9.90;45.90
84791;DHT22;75024;43.486;3.794;2024-01-06T09:44:52;9.90;45.50
84791;DHT22;75024;43.486;3.794;2024-01-06T09:47:18;9.90;45.50
84791;DHT22;75024;43.486;3.794;2024-01-06T09:49:49;9.90;45.40
84791;DHT22;75024;43.486;3.794;2024-01-06T09:52:15;10.00;45.20
84791;DHT22;75024;43.486;3.794;2024-01-06T09:54:51;10.00;44.80
84791;DHT22;75024;43.486;3.794;2024-01-06T09:57:17;10.10;45.30
84791;DHT22;75024;43.486;3.794;2024-01-06T09:59:46;10.20;44.70
84791;DHT22;75024;43.486;3.794;2024-01-06T10:02:16;10.20;44.90
84791;DHT22;75024;43.486;3.794;2024-01-06T10:04:43;10.30;45.10
84791;DHT22;75024;43.486;3.794;2024-01-06T10:07:10;10.30;44.50
84791;DHT22;75024;43.486;3.794;2024-01-06T10:09:40;10.40;44.70
84791;DHT22;75024;43.486;3.794;2024-01-06T10:12:07;10.40;44.80
84791;DHT22;75024;43.486;3.794;2024-01-06T10:14:32;10.50;45.00
84791;DHT22;75024;43.486;3.794;2024-01-06T10:16:58;10.50;44.40
84791;DHT22;75024;43.486;3.794;2024-01-06T10:19:24;10.60;43.90
84791;DHT22;75024;43.486;3.794;2024-01-06T10:21:50;10.60;43.90
84791;DHT22;75024;43.486;3.794;2024-01-06T10:24:17;10.70;43.80
84791;DHT22;75024;43.486;3.794;2024-01-06T10:26:45;10.70;43.50
84791;DHT22;75024;43.486;3.794;2024-01-06T10:29:12;10.80;43.80
84791;DHT22;75024;43.486;3.794;2024-01-06T10:31:38;10.90;43.70
84791;DHT22;75024;43.486;3.794;2024-01-06T10:34:05;11.00;43.50
84791;DHT22;75024;43.486;3.794;2024-01-06T10:36:31;10.90;43.80
84791;DHT22;75024;43.486;3.794;2024-01-06T10:38:57;11.10;43.70
84791;DHT22;75024;43.486;3.794;2024-01-06T10:41:23;11.20;43.50
84791;DHT22;75024;43.486;3.794;2024-01-06T10:43:51;11.10;43.30
84791;DHT22;75024;43.486;3.794;2024-01-06T10:46:19;11.10;42.90
84791;DHT22;75024;43.486;3.794;2024-01-06T10:48:46;11.00;42.90
84791;DHT22;75024;43.486;3.794;2024-01-06T10:51:13;11.10;43.10
84791;DHT22;75024;43.486;3.794;2024-01-06T10:53:41;11.20;43.20
84791;DHT22;75024;43.486;3.794;2024-01-06T10:56:07;11.20;42.80
84791;DHT22;75024;43.486;3.794;2024-01-06T10:58:34;11.20;43.00
84791;DHT22;75024;43.486;3.794;2024-01-06T11:01:03;11.30;42.70
84791;DHT22;75024;43.486;3.794;2024-01-06T11:03:29;11.20;43.10
84791;DHT22;75024;43.486;3.794;2024-01-06T11:05:58;11.30;43.00
84791;DHT22;75024;43.486;3.794;2024-01-06T11:08:25;11.30;43.20
84791;DHT22;75024;43.486;3.794;2024-01-06T11:10:50;11.30;43.60
84791;DHT22;75024;43.486;3.794;2024-01-06T11:13:22;11.40;43.20
84791;DHT22;75024;43.486;3.794;2024-01-06T11:15:50;11.40;43.40
84791;DHT22;75024;43.486;3.794;2024-01-06T11:18:42;11.40;43.20
84791;DHT22;75024;43.486;3.794;2024-01-06T11:21:17;11.30;43.00
84791;DHT22;75024;43.486;3.794;2024-01-06T11:23:44;11.30;43.20
84791;DHT22;75024;43.486;3.794;2024-01-06T11:26:10;11.40;43.30
84791;DHT22;75024;43.486;3.794;2024-01-06T11:28:46;11.50;43.50
84791;DHT22;75024;43.486;3.794;2024-01-06T11:31:21;11.60;43.30
84791;DHT22;75024;43.486;3.794;2024-01-06T11:33:51;11.70;43.20
84791;DHT22;75024;43.486;3.794;2024-01-06T11:36:16;11.80;42.70
84791;DHT22;75024;43.486;3.794;2024-01-06T11:38:42;11.70;42.70
84791;DHT22;75024;43.486;3.794;2024-01-06T11:41:50;11.80;42.90
84791;DHT22;75024;43.486;3.794;2024-01-06T11:44:22;11.80;43.00
84791;DHT22;75024;43.486;3.794;2024-01-06T11:46:48;11.80;42.20
84791;DHT22;75024;43.486;3.794;2024-01-06T11:49:20;11.70;42.60
84791;DHT22;75024;43.486;3.794;2024-01-06T11:51:46;11.80;42.40
84791;DHT22;75024;43.486;3.794;2024-01-06T11:54:12;11.80;42.70
84791;DHT22;75024;43.486;3.794;2024-01-06T11:56:38;11.70;42.60
84791;DHT22;75024;43.486;3.794;2024-01-06T11:59:04;11.80;42.50
84791;DHT22;75024;43.486;3.794;2024-01-06T12:01:39;11.80;42.50
84791;DHT22;75024;43.486;3.794;2024-01-06T12:04:05;11.80;42.40
84791;DHT22;75024;43.486;3.794;2024-01-06T12:06:32;11.90;42.00
84791;DHT22;75024;43.486;3.794;2024-01-06T12:09:12;11.70;42.20
84791;DHT22;75024;43.486;3.794;2024-01-06T12:11:41;11.80;42.10
84791;DHT22;75024;43.486;3.794;2024-01-06T12:14:07;11.90;42.50
84791;DHT22;75024;43.486;3.794;2024-01-06T12:16:32;12.00;42.40
84791;DHT22;75024;43.486;3.794;2024-01-06T12:18:59;11.90;41.80
84791;DHT22;75024;43.486;3.794;2024-01-06T12:21:29;11.80;41.90
84791;DHT22;75024;43.486;3.794;2024-01-06T12:24:16;11.90;42.00
84791;DHT22;75024;43.486;3.794;2024-01-06T12:26:49;11.90;42.20
84791;DHT22;75024;43.486;3.794;2024-01-06T12:29:17;11.90;42.00
84791;DHT22;75024;43.486;3.794;2024-01-06T12:31:43;12.00;41.50
84791;DHT22;75024;43.486;3.794;2024-01-06T12:34:10;12.90;40.30
84791;DHT22;75024;43.486;3.794;2024-01-06T12:36:40;14.50;38.60
84791;DHT22;75024;43.486;3.794;2024-01-06T12:39:10;14.40;38.50
84791;DHT22;75024;43.486;3.794;2024-01-06T12:41:42;14.50;38.00
84791;DHT22;75024;43.486;3.794;2024-01-06T12:44:09;14.50;37.80
84791;DHT22;75024;43.486;3.794;2024-01-06T12:46:35;14.70;37.80
84791;DHT22;75024;43.486;3.794;2024-01-06T12:49:01;14.80;37.50
84791;DHT22;75024;43.486;3.794;2024-01-06T12:51:27;14.60;37.90
84791;DHT22;75024;43.486;3.794;2024-01-06T12:53:53;15.10;37.60
84791;DHT22;75024;43.486;3.794;2024-01-06T12:56:19;14.30;38.20
84791;DHT22;75024;43.486;3.794;2024-01-06T12:58:45;13.10;39.50
84791;DHT22;75024;43.486;3.794;2024-01-06T13:01:10;12.80;40.30
84791;DHT22;75024;43.486;3.794;2024-01-06T13:03:36;12.30;40.90
84791;DHT22;75024;43.486;3.794;2024-01-06T13:06:03;12.20;41.10
84791;DHT22;75024;43.486;3.794;2024-01-06T13:08:28;12.00;41.00
84791;DHT22;75024;43.486;3.794;2024-01-06T13:10:55;12.00;41.20
84791;DHT22;75024;43.486;3.794;2024-01-06T13:13:21;12.00;41.10
84791;DHT22;75024;43.486;3.794;2024-01-06T13:15:47;11.80;41.40
84791;DHT22;75024;43.486;3.794;2024-01-06T13:18:13;11.80;41.60
84791;DHT22;75024;43.486;3.794;2024-01-06T13:20:39;11.80;41.60
84791;DHT22;75024;43.486;3.794;2024-01-06T13:23:07;11.90;40.20
84791;DHT22;75024;43.486;3.794;2024-01-06T13:25:33;11.80;40.70
84791;DHT22;75024;43.486;3.794;2024-01-06T13:27:59;11.80;40.80
84791;DHT22;75024;43.486;3.794;2024-01-06T13:30:25;11.80;40.70
84791;DHT22;75024;43.486;3.794;2024-01-06T13:32:54;11.90;40.90
84791;DHT22;75024;43.486;3.794;2024-01-06T13:35:20;12.00;40.70
84791;DHT22;75024;43.486;3.794;2024-01-06T13:37:46;11.90;41.10
84791;DHT22;75024;43.486;3.794;2024-01-06T13:40:14;12.00;41.10
84791;DHT22;75024;43.486;3.794;2024-01-06T13:42:40;11.90;40.90
84791;DHT22;75024;43.486;3.794;2024-01-06T13:45:06;11.90;41.20
84791;DHT22;75024;43.486;3.794;2024-01-06T13:47:32;11.80;41.50
84791;DHT22;75024;43.486;3.794;2024-01-06T13:49:58;11.80;41.50
84791;DHT22;75024;43.486;3.794;2024-01-06T13:52:24;11.90;41.50
84791;DHT22;75024;43.486;3.794;2024-01-06T13:54:50;11.90;41.50
84791;DHT22;75024;43.486;3.794;2024-01-06T13:57:15;11.80;41.50
84791;DHT22;75024;43.486;3.794;2024-01-06T13:59:41;11.80;41.60
84791;DHT22;75024;43.486;3.794;2024-01-06T14:02:08;11.90;41.80
84791;DHT22;75024;43.486;3.794;2024-01-06T14:04:35;11.90;41.80
84791;DHT22;75024;43.486;3.794;2024-01-06T14:07:01;12.00;41.90
84791;DHT22;75024;43.486;3.794;2024-01-06T14:09:27;11.90;41.60
84791;DHT22;75024;43.486;3.794;2024-01-06T14:11:53;11.90;41.60
84791;DHT22;75024;43.486;3.794;2024-01-06T14:14:20;11.90;41.40
84791;DHT22;75024;43.486;3.794;2024-01-06T14:16:46;12.00;41.50
84791;DHT22;75024;43.486;3.794;2024-01-06T14:19:13;12.20;41.10
84791;DHT22;75024;43.486;3.794;2024-01-06T14:21:39;12.10;41.10
84791;DHT22;75024;43.486;3.794;2024-01-06T14:24:05;12.20;41.10
84791;DHT22;75024;43.486;3.794;2024-01-06T14:26:32;12.70;40.50
84791;DHT22;75024;43.486;3.794;2024-01-06T14:28:58;14.00;38.80
84791;DHT22;75024;43.486;3.794;2024-01-06T14:31:24;14.50;38.00
84791;DHT22;75024;43.486;3.794;2024-01-06T14:33:50;14.60;37.40
84791;DHT22;75024;43.486;3.794;2024-01-06T14:36:16;14.70;37.70
84791;DHT22;75024;43.486;3.794;2024-01-06T14:38:41;15.20;37.20
84791;DHT22;75024;43.486;3.794;2024-01-06T14:41:07;15.00;37.60
84791;DHT22;75024;43.486;3.794;2024-01-06T14:43:32;15.10;37.60
84791;DHT22;75024;43.486;3.794;2024-01-06T14:45:58;14.80;38.10
84791;DHT22;75024;43.486;3.794;2024-01-06T14:48:24;15.30;37.90
84791;DHT22;75024;43.486;3.794;2024-01-06T14:50:49;14.70;39.20
84791;DHT22;75024;43.486;3.794;2024-01-06T14:53:16;14.80;39.20
84791;DHT22;75024;43.486;3.794;2024-01-06T14:55:42;15.40;38.90
84791;DHT22;75024;43.486;3.794;2024-01-06T14:58:07;15.20;38.80
84791;DHT22;75024;43.486;3.794;2024-01-06T15:00:35;15.00;39.30
84791;DHT22;75024;43.486;3.794;2024-01-06T15:03:01;15.00;39.80
84791;DHT22;75024;43.486;3.794;2024-01-06T15:05:26;13.40;42.10
84791;DHT22;75024;43.486;3.794;2024-01-06T15:07:55;12.30;44.00
84791;DHT22;75024;43.486;3.794;2024-01-06T15:10:21;12.00;44.80
84791;DHT22;75024;43.486;3.794;2024-01-06T15:12:47;11.70;45.20
84791;DHT22;75024;43.486;3.794;2024-01-06T15:15:13;11.60;45.60
84791;DHT22;75024;43.486;3.794;2024-01-06T15:17:39;11.40;45.90
84791;DHT22;75024;43.486;3.794;2024-01-06T15:20:05;11.40;46.30
84791;DHT22;75024;43.486;3.794;2024-01-06T15:22:31;11.30;46.60
84791;DHT22;75024;43.486;3.794;2024-01-06T15:24:57;11.10;46.70
84791;DHT22;75024;43.486;3.794;2024-01-06T15:27:23;11.00;47.10
84791;DHT22;75024;43.486;3.794;2024-01-06T15:29:48;11.00;47.40
84791;DHT22;75024;43.486;3.794;2024-01-06T15:32:14;10.90;47.70